createdAt,value
2017-11-26T00:01:17.501Z,4.40
2017-11-26T00:03:46.731Z,4.31
2017-11-26T00:06:15.966Z,4.35
2017-11-26T00:08:45.154Z,4.33
2017-11-26T00:11:14.450Z,4.38
2017-11-26T00:13:44.637Z,4.43
2017-11-26T00:16:14.619Z,4.46
2017-11-26T00:18:43.839Z,4.48
2017-11-26T00:21:13.094Z,4.46
2017-11-26T00:23:42.264Z,4.49
2017-11-26T00:26:11.526Z,4.52
2017-11-26T00:28:40.734Z,4.54
2017-11-26T00:31:10.721Z,4.44
2017-11-26T00:33:39.925Z,4.42
2017-11-26T00:36:09.169Z,4.42
2017-11-26T00:38:39.119Z,4.43
2017-11-26T00:41:09.121Z,4.48
2017-11-26T00:43:38.336Z,4.48
2017-11-26T00:46:07.563Z,4.50
2017-11-26T00:48:36.776Z,4.55
2017-11-26T00:51:06.736Z,4.57
2017-11-26T00:53:35.961Z,4.60
2017-11-26T00:56:05.179Z,4.56
2017-11-26T00:58:34.434Z,4.56
2017-11-26T01:01:03.674Z,4.62
2017-11-26T01:03:33.648Z,4.65
2017-11-26T01:06:02.948Z,4.70
2017-11-26T01:08:32.148Z,4.70
2017-11-26T01:11:01.363Z,4.73
2017-11-26T01:13:30.547Z,4.65
2017-11-26T01:15:59.794Z,4.66
2017-11-26T01:18:29.743Z,4.62
2017-11-26T01:20:59.008Z,4.58
2017-11-26T01:23:28.976Z,4.57
2017-11-26T01:25:58.964Z,4.52
2017-11-26T01:28:28.236Z,4.51
2017-11-26T01:30:58.192Z,4.49
2017-11-26T01:33:27.403Z,4.47
2017-11-26T01:35:57.497Z,4.52
2017-11-26T01:38:26.711Z,4.52
2017-11-26T01:40:55.909Z,4.49
2017-11-26T01:43:25.181Z,4.47
2017-11-26T01:45:54.416Z,4.56
2017-11-26T01:48:23.629Z,4.52
2017-11-26T01:50:52.856Z,4.54
2017-11-26T01:53:22.070Z,4.53
2017-11-26T01:55:52.991Z,4.50
2017-11-26T01:58:22.210Z,4.50
2017-11-26T02:00:51.600Z,4.49
2017-11-26T02:03:20.921Z,4.48
2017-11-26T02:05:50.133Z,4.45
2017-11-26T02:08:19.413Z,4.41
2017-11-26T02:10:48.619Z,4.40
2017-11-26T02:13:17.846Z,4.39
2017-11-26T02:15:47.035Z,4.36
2017-11-26T02:18:16.269Z,4.34
2017-11-26T02:20:48.012Z,4.38
2017-11-26T02:23:19.401Z,4.44
2017-11-26T02:25:48.588Z,4.50
2017-11-26T02:28:17.799Z,4.50
2017-11-26T02:30:47.029Z,4.48
2017-11-26T02:33:33.825Z,4.48
2017-11-26T02:36:17.882Z,4.41
2017-11-26T02:38:47.159Z,4.43
2017-11-26T02:41:16.350Z,4.44
2017-11-26T02:43:45.556Z,4.47
2017-11-26T02:46:14.799Z,4.48
2017-11-26T02:48:43.988Z,4.46
2017-11-26T02:51:13.209Z,4.46
2017-11-26T02:53:42.393Z,4.44
2017-11-26T02:56:11.661Z,4.42
2017-11-26T02:58:41.679Z,4.39
2017-11-26T03:01:10.972Z,4.39
2017-11-26T03:03:40.201Z,4.37
2017-11-26T03:06:09.458Z,4.36
2017-11-26T03:08:38.670Z,4.27
2017-11-26T03:11:07.890Z,4.18
2017-11-26T03:13:37.108Z,4.18
2017-11-26T03:16:07.262Z,4.12
2017-11-26T03:18:36.394Z,4.14
2017-11-26T03:21:05.713Z,4.15
2017-11-26T03:23:35.741Z,4.13
2017-11-26T03:26:05.711Z,4.12
2017-11-26T03:28:34.915Z,4.13
2017-11-26T03:31:04.158Z,4.09
2017-11-26T03:33:34.119Z,4.06
2017-11-26T03:36:03.345Z,4.01
2017-11-26T03:38:32.531Z,4.01
2017-11-26T03:41:01.753Z,4.01
2017-11-26T03:43:31.745Z,3.98
2017-11-26T03:46:00.948Z,3.97
2017-11-26T03:48:30.144Z,3.92
2017-11-26T03:50:59.338Z,3.90
2017-11-26T03:53:28.562Z,3.91
2017-11-26T03:55:58.502Z,3.84
2017-11-26T03:58:27.733Z,3.89
2017-11-26T04:00:57.116Z,3.92
2017-11-26T04:03:26.356Z,3.95
2017-11-26T04:05:55.564Z,3.91
2017-11-26T04:08:25.502Z,3.95
2017-11-26T04:10:54.721Z,3.92
2017-11-26T04:13:23.941Z,3.98
2017-11-26T04:15:53.953Z,4.02
2017-11-26T04:18:23.140Z,4.05
2017-11-26T04:20:52.456Z,4.08
2017-11-26T04:23:21.628Z,4.13
2017-11-26T04:25:50.883Z,4.18
2017-11-26T04:28:20.104Z,4.19
2017-11-26T04:30:50.057Z,4.22
2017-11-26T04:33:20.037Z,4.21
2017-11-26T04:35:49.241Z,4.19
2017-11-26T04:38:18.470Z,4.18
2017-11-26T04:40:47.675Z,4.20
2017-11-26T04:43:16.981Z,4.22
2017-11-26T04:45:46.201Z,4.23
2017-11-26T04:48:16.189Z,4.26
2017-11-26T05:03:35.297Z,4.48
2017-11-26T05:06:04.508Z,4.44
2017-11-26T05:08:33.728Z,4.44
2017-11-26T05:11:03.157Z,4.40
2017-11-26T05:13:33.151Z,4.41
2017-11-26T05:16:02.380Z,4.39
2017-11-26T05:18:32.326Z,4.39
2017-11-26T05:21:01.553Z,4.42
2017-11-26T05:23:30.731Z,4.46
2017-11-26T05:25:59.942Z,4.38
2017-11-26T05:28:29.155Z,4.36
2017-11-26T05:30:58.435Z,4.27
2017-11-26T05:33:27.664Z,4.30
2017-11-26T05:35:57.633Z,4.28
2017-11-26T05:38:26.871Z,4.27
2017-11-26T05:40:56.085Z,4.28
2017-11-26T05:43:26.060Z,4.25
2017-11-26T05:45:55.280Z,4.26
2017-11-26T05:48:24.481Z,4.24
2017-11-26T05:50:53.737Z,4.25
2017-11-26T05:53:23.032Z,4.27
2017-11-26T05:55:52.267Z,4.30
2017-11-26T05:58:21.499Z,4.29
2017-11-26T06:00:50.742Z,4.31
2017-11-26T06:03:19.927Z,4.29
2017-11-26T06:05:49.137Z,4.31
2017-11-26T06:08:18.381Z,4.26
2017-11-26T06:10:48.350Z,4.23
2017-11-26T06:13:17.589Z,4.27
2017-11-26T06:15:46.834Z,4.25
2017-11-26T06:18:16.048Z,4.23
2017-11-26T06:20:45.237Z,4.19
2017-11-26T06:23:14.450Z,4.23
2017-11-26T06:25:43.661Z,4.21
2017-11-26T06:28:12.852Z,4.19
2017-11-26T06:30:42.069Z,4.19
2017-11-26T06:33:12.031Z,4.12
2017-11-26T06:35:41.236Z,4.11
2017-11-26T06:38:10.447Z,4.10
2017-11-26T06:40:39.645Z,4.11
2017-11-26T06:43:08.853Z,4.12
2017-11-26T06:45:38.082Z,4.12
2017-11-26T06:48:08.057Z,4.15
2017-11-26T06:50:37.329Z,4.12
2017-11-26T06:53:06.526Z,4.13
2017-11-26T06:55:35.744Z,4.17
2017-11-26T06:58:04.950Z,4.22
2017-11-26T07:00:34.154Z,4.22
2017-11-26T07:03:03.368Z,4.22
2017-11-26T07:05:32.600Z,4.25
2017-11-26T07:08:01.816Z,4.26
2017-11-26T07:10:31.088Z,4.30
2017-11-26T07:13:00.296Z,4.36
2017-11-26T07:15:29.493Z,4.42
2017-11-26T07:17:58.721Z,4.36
2017-11-26T07:20:27.964Z,4.41
2017-11-26T07:22:57.273Z,4.42
2017-11-26T07:25:27.314Z,4.40
2017-11-26T07:27:57.402Z,4.39
2017-11-26T07:30:27.391Z,4.44
2017-11-26T07:32:56.595Z,4.44
2017-11-26T07:35:26.576Z,4.48
2017-11-26T07:37:55.800Z,4.38
2017-11-26T07:40:25.005Z,4.43
2017-11-26T07:42:54.197Z,4.42
2017-11-26T07:45:23.405Z,4.46
2017-11-26T07:47:52.656Z,4.46
2017-11-26T07:50:22.649Z,4.47
2017-11-26T07:52:51.881Z,4.50
2017-11-26T07:55:21.076Z,4.51
2017-11-26T07:57:50.314Z,4.61
2017-11-26T08:00:20.298Z,4.66
2017-11-26T08:02:49.524Z,4.70
2017-11-26T08:05:18.742Z,4.67
2017-11-26T08:07:48.705Z,4.73
2017-11-26T08:10:17.951Z,4.72
2017-11-26T08:12:47.937Z,4.71
2017-11-26T08:15:17.203Z,4.66
2017-11-26T08:17:46.446Z,4.64
2017-11-26T08:20:15.649Z,4.65
2017-11-26T08:22:45.642Z,4.66
2017-11-26T08:25:14.824Z,4.71
2017-11-26T08:27:44.022Z,4.79
2017-11-26T08:30:14.158Z,4.78
2017-11-26T08:32:43.364Z,4.78
2017-11-26T08:35:13.022Z,4.80
2017-11-26T08:37:42.281Z,4.81
2017-11-26T08:40:12.325Z,4.84
2017-11-26T08:42:41.768Z,4.85
2017-11-26T08:45:11.092Z,4.90
2017-11-26T08:47:41.173Z,4.83
2017-11-26T08:50:10.381Z,4.80
2017-11-26T08:52:39.640Z,4.83
2017-11-26T08:55:09.608Z,4.85
2017-11-26T08:57:38.835Z,4.86
2017-11-26T09:00:08.837Z,4.85
2017-11-26T09:02:38.084Z,4.84
2017-11-26T09:05:07.360Z,4.87
2017-11-26T09:07:42.225Z,4.91
2017-11-26T09:10:11.429Z,4.92
2017-11-26T09:12:40.660Z,5.00
2017-11-26T09:15:09.897Z,5.00
2017-11-26T09:17:39.066Z,5.02
2017-11-26T09:20:08.248Z,5.08
2017-11-26T09:22:38.243Z,5.12
2017-11-26T09:25:07.441Z,5.14
2017-11-26T09:27:36.670Z,5.12
2017-11-26T09:30:06.657Z,5.17
2017-11-26T09:32:36.093Z,5.26
2017-11-26T09:35:06.083Z,5.30
2017-11-26T09:37:35.372Z,5.35
2017-11-26T09:40:04.570Z,5.40
2017-11-26T09:42:34.010Z,5.49
2017-11-26T09:45:04.020Z,5.48
2017-11-26T09:47:33.984Z,5.51
2017-11-26T09:50:03.258Z,5.52
2017-11-26T09:52:32.630Z,5.50
2017-11-26T09:55:01.892Z,5.50
2017-11-26T09:57:31.245Z,5.57
2017-11-26T10:00:01.253Z,5.58
2017-11-26T10:02:31.239Z,5.62
2017-11-26T10:05:00.536Z,5.66
2017-11-26T10:07:29.760Z,5.70
2017-11-26T10:09:59.034Z,5.70
2017-11-26T10:12:28.291Z,5.73
2017-11-26T10:14:57.494Z,5.73
2017-11-26T10:17:26.712Z,5.73
2017-11-26T10:19:55.927Z,5.77
2017-11-26T10:22:25.138Z,5.81
2017-11-26T10:24:54.365Z,5.86
2017-11-26T10:27:23.613Z,5.92
2017-11-26T10:29:53.589Z,5.83
2017-11-26T10:32:22.817Z,5.84
2017-11-26T10:34:52.016Z,5.89
2017-11-26T10:37:21.293Z,5.93
2017-11-26T10:39:50.591Z,5.98
2017-11-26T10:42:19.808Z,6.01
2017-11-26T10:44:51.697Z,6.09
2017-11-26T10:47:20.888Z,6.16
2017-11-26T10:49:50.097Z,6.29
2017-11-26T10:52:19.344Z,6.35
2017-11-26T10:54:48.612Z,6.41
2017-11-26T10:57:18.585Z,6.44
2017-11-26T10:59:47.771Z,6.41
2017-11-26T11:02:16.974Z,6.41
2017-11-26T11:04:46.190Z,6.44
2017-11-26T11:07:15.385Z,6.43
2017-11-26T11:09:46.108Z,6.36
2017-11-26T11:12:15.353Z,6.36
2017-11-26T11:14:45.313Z,6.32
2017-11-26T11:17:14.524Z,6.30
2017-11-26T11:19:43.734Z,6.32
2017-11-26T11:22:12.957Z,6.30
2017-11-26T11:24:42.919Z,6.32
2017-11-26T11:27:12.139Z,6.31
2017-11-26T11:29:41.352Z,6.31
2017-11-26T11:32:10.592Z,6.31
2017-11-26T11:34:39.780Z,6.23
2017-11-26T11:37:08.996Z,6.28
2017-11-26T11:39:38.230Z,6.29
2017-11-26T11:42:07.468Z,6.35
2017-11-26T11:44:36.651Z,6.36
2017-11-26T11:47:06.631Z,6.41
2017-11-26T11:49:35.857Z,6.45
2017-11-26T11:52:05.821Z,6.44
2017-11-26T11:54:35.106Z,6.43
2017-11-26T11:57:04.323Z,6.46
2017-11-26T11:59:33.646Z,6.46
2017-11-26T12:02:02.849Z,6.44
2017-11-26T12:04:32.091Z,6.43
2017-11-26T12:07:01.272Z,6.42
2017-11-26T12:09:31.240Z,6.41
2017-11-26T12:12:00.461Z,6.41
2017-11-26T12:14:29.858Z,6.39
2017-11-26T12:16:59.040Z,6.40
2017-11-26T12:19:28.245Z,6.44
2017-11-26T12:21:57.484Z,6.45
2017-11-26T12:24:27.434Z,6.50
2017-11-26T12:26:56.636Z,6.49
2017-11-26T12:29:25.827Z,6.46
2017-11-26T12:31:55.071Z,6.48
2017-11-26T12:34:25.036Z,6.45
2017-11-26T12:36:54.258Z,6.48
2017-11-26T12:39:23.457Z,6.49
2017-11-26T12:41:52.744Z,6.57
2017-11-26T12:44:21.940Z,6.55
2017-11-26T12:46:51.128Z,6.55
2017-11-26T12:49:20.350Z,6.58
2017-11-26T12:51:49.577Z,6.55
2017-11-26T12:54:19.553Z,6.58
2017-11-26T12:56:49.054Z,6.54
2017-11-26T12:59:18.276Z,6.56
2017-11-26T13:01:47.468Z,6.51
2017-11-26T13:04:17.477Z,6.53
2017-11-26T13:06:47.458Z,6.53
2017-11-26T13:09:16.651Z,6.51
2017-11-26T13:11:45.817Z,6.49
2017-11-26T13:14:15.800Z,6.49
2017-11-26T13:16:45.178Z,6.50
2017-11-26T13:19:14.447Z,6.53
2017-11-26T13:21:44.460Z,6.53
2017-11-26T13:24:13.779Z,6.56
2017-11-26T13:26:42.996Z,6.55
2017-11-26T13:29:12.218Z,6.55
2017-11-26T13:31:41.511Z,6.53
2017-11-26T13:34:11.695Z,6.53
2017-11-26T13:36:40.924Z,6.52
2017-11-26T13:39:10.132Z,6.54
2017-11-26T13:41:39.354Z,6.51
2017-11-26T13:44:08.520Z,6.57
2017-11-26T13:46:37.767Z,6.63
2017-11-26T13:49:06.986Z,6.61
2017-11-26T13:51:36.209Z,6.51
2017-11-26T13:54:05.418Z,6.51
2017-11-26T13:56:34.600Z,6.48
2017-11-26T13:59:03.862Z,6.49
2017-11-26T14:01:33.078Z,6.53
2017-11-26T14:04:02.307Z,6.52
2017-11-26T14:06:31.558Z,6.46
2017-11-26T14:09:00.796Z,6.47
2017-11-26T14:11:30.027Z,6.50
2017-11-26T14:13:59.993Z,6.44
2017-11-26T14:16:29.348Z,6.44
2017-11-26T14:18:59.321Z,6.49
2017-11-26T14:21:28.524Z,6.54
2017-11-26T14:23:58.605Z,6.56
2017-11-26T14:26:27.907Z,6.48
2017-11-26T14:28:57.111Z,6.45
2017-11-26T14:31:26.354Z,6.54
2017-11-26T14:33:55.566Z,6.54
2017-11-26T14:36:25.508Z,6.46
2017-11-26T14:38:54.847Z,6.39
2017-11-26T14:41:24.042Z,6.34
2017-11-26T14:43:53.344Z,6.30
2017-11-26T14:46:22.541Z,6.30
2017-11-26T14:48:51.707Z,6.29
2017-11-26T14:51:20.939Z,6.30
2017-11-26T14:53:50.137Z,6.19
2017-11-26T14:56:19.430Z,6.19
2017-11-26T14:58:48.696Z,6.20
2017-11-26T15:01:17.862Z,6.18
2017-11-26T15:03:47.074Z,6.23
2017-11-26T15:06:16.304Z,6.23
2017-11-26T15:08:45.517Z,6.24
2017-11-26T15:11:14.712Z,6.20
2017-11-26T15:13:43.917Z,6.22
2017-11-26T15:16:13.140Z,6.23
2017-11-26T15:18:43.194Z,6.27
2017-11-26T15:21:12.394Z,6.28
2017-11-26T15:23:41.662Z,6.30
2017-11-26T15:26:10.903Z,6.29
2017-11-26T15:28:40.124Z,6.35
2017-11-26T15:31:09.285Z,6.31
2017-11-26T15:33:38.535Z,6.29
2017-11-26T15:36:07.745Z,6.27
2017-11-26T15:38:36.945Z,6.25
2017-11-26T15:41:06.936Z,6.23
2017-11-26T15:43:36.152Z,6.21
2017-11-26T15:46:05.361Z,6.15
2017-11-26T15:48:35.440Z,6.16
2017-11-26T15:51:04.714Z,6.10
2017-11-26T15:53:33.925Z,6.14
2017-11-26T15:56:03.175Z,6.17
2017-11-26T15:58:32.398Z,6.19
2017-11-26T16:01:01.566Z,6.22
2017-11-26T16:03:30.824Z,6.16
2017-11-26T16:05:59.980Z,6.15
2017-11-26T16:08:29.245Z,6.15
2017-11-26T16:10:58.483Z,6.04
2017-11-26T16:13:27.797Z,5.82
2017-11-26T16:15:57.067Z,5.61
2017-11-26T16:18:26.297Z,5.52
2017-11-26T16:20:55.514Z,5.48
2017-11-26T16:23:24.781Z,5.42
2017-11-26T16:25:53.958Z,5.28
2017-11-26T16:28:23.183Z,5.04
2017-11-26T16:30:52.492Z,4.88
2017-11-26T16:33:21.701Z,4.93
2017-11-26T16:35:52.491Z,4.98
2017-11-26T16:38:22.442Z,4.98
2017-11-26T16:40:51.717Z,4.88
2017-11-26T16:43:20.906Z,5.04
2017-11-26T16:45:50.142Z,5.10
2017-11-26T16:48:19.373Z,5.18
2017-11-26T16:50:49.355Z,5.13
2017-11-26T16:53:18.597Z,5.22
2017-11-26T16:55:48.687Z,5.27
2017-11-26T16:58:17.900Z,5.31
2017-11-26T17:00:47.963Z,5.32
2017-11-26T17:03:19.015Z,5.40
2017-11-26T17:05:49.072Z,5.44
2017-11-26T17:08:18.354Z,5.41
2017-11-26T17:10:47.537Z,5.37
2017-11-26T17:13:17.453Z,5.30
2017-11-26T17:15:46.638Z,5.35
2017-11-26T17:18:15.878Z,5.41
2017-11-26T17:20:45.877Z,5.38
2017-11-26T17:23:15.160Z,5.39
2017-11-26T17:25:44.451Z,5.39
2017-11-26T17:28:13.713Z,5.28
2017-11-26T17:30:43.652Z,5.31
2017-11-26T17:33:12.903Z,5.34
2017-11-26T17:35:42.121Z,5.32
2017-11-26T17:38:11.327Z,5.34
2017-11-26T17:40:40.625Z,5.32
2017-11-26T17:43:09.834Z,5.38
2017-11-26T17:45:39.077Z,5.41
2017-11-26T17:48:08.266Z,5.46
2017-11-26T17:50:37.500Z,5.51
2017-11-26T17:53:07.538Z,5.55
2017-11-26T17:55:36.761Z,5.61
2017-11-26T17:58:05.947Z,5.66
2017-11-26T18:00:35.701Z,5.66
2017-11-26T18:03:05.006Z,5.66
2017-11-26T18:05:34.232Z,5.65
2017-11-26T18:08:03.492Z,5.66
2017-11-26T18:10:32.755Z,5.69
2017-11-26T18:13:01.984Z,5.73
2017-11-26T18:15:31.953Z,5.72
2017-11-26T18:18:01.962Z,5.72
2017-11-26T18:20:31.268Z,5.70
2017-11-26T18:23:00.493Z,5.74
2017-11-26T18:25:29.939Z,5.77
2017-11-26T18:27:59.181Z,5.72
2017-11-26T18:30:28.490Z,5.73
2017-11-26T18:32:57.797Z,5.73
2017-11-26T18:35:27.828Z,5.69
2017-11-26T18:37:57.020Z,5.67
2017-11-26T18:40:26.374Z,5.69
2017-11-26T18:42:55.634Z,5.68
2017-11-26T18:45:25.640Z,5.67
2017-11-26T18:47:54.943Z,5.68
2017-11-26T18:50:24.224Z,5.70
2017-11-26T18:52:53.470Z,5.72
2017-11-26T18:55:23.457Z,5.69
2017-11-26T18:57:52.716Z,5.67
2017-11-26T19:00:21.937Z,5.71
2017-11-26T19:02:51.157Z,5.72
2017-11-26T19:05:20.460Z,5.72
2017-11-26T19:07:49.724Z,5.70
2017-11-26T19:10:19.003Z,5.73
2017-11-26T19:12:48.233Z,5.69
2017-11-26T19:15:17.597Z,5.70
2017-11-26T19:17:46.810Z,5.69
2017-11-26T19:20:16.046Z,5.71
2017-11-26T19:22:45.329Z,5.73
2017-11-26T19:25:15.369Z,5.72
2017-11-26T19:27:44.606Z,5.71
2017-11-26T19:30:13.921Z,5.70
2017-11-26T19:32:43.199Z,5.69
2017-11-26T19:35:12.629Z,5.64
2017-11-26T19:37:41.898Z,5.69
2017-11-26T19:40:11.903Z,5.74
2017-11-26T19:42:41.908Z,5.76
2017-11-26T19:45:11.897Z,5.77
2017-11-26T19:47:41.184Z,5.73
2017-11-26T19:50:11.180Z,5.71
2017-11-26T19:52:40.416Z,5.67
2017-11-26T19:55:10.514Z,5.66
2017-11-26T19:57:40.917Z,5.67
2017-11-26T20:00:10.180Z,5.69
2017-11-26T20:02:40.266Z,5.59
2017-11-26T20:05:09.581Z,5.55
2017-11-26T20:07:38.957Z,5.54
2017-11-26T20:10:08.223Z,5.54
2017-11-26T20:12:37.523Z,5.52
2017-11-26T20:15:07.477Z,5.50
2017-11-26T20:17:36.805Z,5.43
2017-11-26T20:20:07.571Z,5.48
2017-11-26T20:22:36.825Z,5.54
2017-11-26T20:25:06.127Z,5.56
2017-11-26T20:27:35.411Z,5.61
2017-11-26T20:30:04.641Z,5.59
2017-11-26T20:32:34.733Z,5.63
2017-11-26T20:35:03.965Z,5.63
2017-11-26T20:37:33.200Z,5.57
2017-11-26T20:40:02.458Z,5.61
2017-11-26T20:42:31.696Z,5.54
2017-11-26T20:45:00.931Z,5.53
2017-11-26T20:47:30.172Z,5.54
2017-11-26T20:49:59.401Z,5.53
2017-11-26T20:52:28.725Z,5.52
2017-11-26T20:54:57.934Z,5.50
2017-11-26T20:57:27.237Z,5.48
2017-11-26T20:59:56.487Z,5.49
2017-11-26T21:02:25.706Z,5.51
2017-11-26T21:04:54.979Z,5.54
2017-11-26T21:07:24.221Z,5.57
2017-11-26T21:09:53.598Z,5.57
2017-11-26T21:12:22.793Z,5.54
2017-11-26T21:14:52.049Z,5.52
2017-11-26T21:17:22.066Z,5.55
2017-11-26T21:19:52.061Z,5.53
2017-11-26T21:22:21.330Z,5.47
2017-11-26T21:24:50.796Z,5.48
2017-11-26T21:27:20.016Z,5.46
2017-11-26T21:29:49.253Z,5.45
2017-11-26T21:32:18.422Z,5.42
2017-11-26T21:34:47.738Z,5.43
2017-11-26T21:37:16.986Z,5.44
2017-11-26T21:39:46.323Z,5.38
2017-11-26T21:42:15.684Z,5.36
2017-11-26T21:44:44.895Z,5.28
2017-11-26T21:47:14.088Z,5.24
2017-11-26T21:49:43.383Z,5.24
2017-11-26T21:52:13.369Z,5.23
2017-11-26T21:54:43.736Z,5.23
2017-11-26T21:57:12.944Z,5.21
2017-11-26T21:59:42.153Z,5.19
2017-11-26T22:02:11.429Z,5.18
2017-11-26T22:04:40.643Z,5.15
2017-11-26T22:07:09.885Z,5.08
2017-11-26T22:09:39.890Z,5.08
2017-11-26T22:12:09.274Z,5.07
2017-11-26T22:14:38.512Z,5.02
2017-11-26T22:17:07.735Z,5.02
2017-11-26T22:19:36.993Z,5.00
2017-11-26T22:22:06.997Z,5.01
2017-11-26T22:24:36.236Z,5.04
2017-11-26T22:27:05.615Z,5.03
2017-11-26T22:29:35.727Z,5.03
2017-11-26T22:32:05.699Z,5.05
2017-11-26T22:34:34.914Z,5.08
2017-11-26T22:37:04.136Z,5.04
2017-11-26T22:39:33.356Z,5.04
2017-11-26T22:42:02.599Z,5.06
2017-11-26T22:44:31.892Z,5.03
2017-11-26T22:47:01.861Z,5.01
2017-11-26T22:49:31.116Z,4.95
2017-11-26T22:52:00.317Z,4.88
2017-11-26T22:54:29.563Z,4.83
2017-11-26T22:56:58.780Z,4.76
2017-11-26T22:59:27.975Z,4.79
2017-11-26T23:01:57.219Z,4.77
2017-11-26T23:04:26.421Z,4.76
2017-11-26T23:06:55.629Z,4.75
2017-11-26T23:09:25.659Z,4.66
2017-11-26T23:11:55.622Z,4.63
2017-11-26T23:14:24.816Z,4.61
2017-11-26T23:16:54.801Z,4.54
2017-11-26T23:19:24.009Z,4.57
2017-11-26T23:21:53.309Z,4.61
2017-11-26T23:24:23.296Z,4.66
2017-11-26T23:26:52.479Z,4.65
2017-11-26T23:29:21.668Z,4.67
2017-11-26T23:31:50.856Z,4.68
2017-11-26T23:34:20.100Z,4.68
2017-11-26T23:36:49.337Z,4.66
2017-11-26T23:39:19.342Z,4.68
2017-11-26T23:41:48.549Z,4.66
2017-11-26T23:44:17.765Z,4.66
2017-11-26T23:46:46.997Z,4.65
2017-11-26T23:49:16.978Z,4.62
2017-11-26T23:51:46.192Z,4.63
2017-11-26T23:54:16.169Z,4.64
2017-11-26T23:56:45.369Z,4.62
2017-11-26T23:59:14.560Z,4.60
